TimeCDT,TemperatureF,Dew PointF,Humidity,Sea Level PressureIn,VisibilityMPH,Wind Direction,Wind SpeedMPH,Gust SpeedMPH,PrecipitationIn,Events,Conditions,WindDirDegrees,DateUTC
12:13 AM,33.8,21.2,60,30.06,10.0,NNE,6.9,-,N/A,,Clear,30,2012-10-31 05:13:00
12:33 AM,32.0,19.4,60,30.06,10.0,NNE,6.9,-,N/A,,Clear,20,2012-10-31 05:33:00
12:53 AM,30.2,19.4,64,30.07,10.0,NNW,3.5,-,N/A,,Clear,340,2012-10-31 05:53:00
1:13 AM,30.2,19.4,64,30.07,10.0,Calm,Calm,-,N/A,,Clear,0,2012-10-31 06:13:00
1:33 AM,28.4,19.4,69,30.07,10.0,North,4.6,-,N/A,,Clear,360,2012-10-31 06:33:00
1:53 AM,28.4,19.4,69,30.07,10.0,North,3.5,-,N/A,,Clear,350,2012-10-31 06:53:00
2:13 AM,26.6,19.4,74,30.06,10.0,NNW,3.5,-,N/A,,Clear,340,2012-10-31 07:13:00
2:33 AM,28.4,19.4,69,30.06,10.0,Calm,Calm,-,N/A,,Clear,0,2012-10-31 07:33:00
2:52 AM,26.6,17.6,69,30.06,10.0,North,4.6,-,N/A,,Clear,350,2012-10-31 07:52:00
3:13 AM,26.6,17.6,69,30.06,10.0,NNW,4.6,-,N/A,,Clear,330,2012-10-31 08:13:00
3:32 AM,26.6,17.6,69,30.06,10.0,NNW,5.8,-,N/A,,Clear,330,2012-10-31 08:32:00
3:53 AM,26.6,17.6,69,30.06,10.0,NNE,3.5,-,N/A,,Clear,20,2012-10-31 08:53:00
4:13 AM,26.6,17.6,69,30.06,10.0,Calm,Calm,-,N/A,,Clear,0,2012-10-31 09:13:00
4:32 AM,26.6,19.4,74,30.05,10.0,North,3.5,-,N/A,,Clear,10,2012-10-31 09:32:00
4:53 AM,26.6,17.6,69,30.05,10.0,Calm,Calm,-,N/A,,Clear,0,2012-10-31 09:53:00
5:13 AM,24.8,15.8,69,30.05,10.0,Calm,Calm,-,N/A,,Clear,0,2012-10-31 10:13:00
5:33 AM,24.8,17.6,74,30.05,10.0,West,3.5,-,N/A,,Clear,280,2012-10-31 10:33:00
5:53 AM,23.0,15.8,74,30.05,10.0,Calm,Calm,-,N/A,,Clear,0,2012-10-31 10:53:00
6:13 AM,24.8,17.6,74,30.05,10.0,Calm,Calm,-,N/A,,Clear,0,2012-10-31 11:13:00
6:32 AM,24.8,17.6,74,30.05,10.0,Calm,Calm,-,N/A,,Clear,0,2012-10-31 11:32:00
6:53 AM,23.0,17.6,80,30.05,10.0,Calm,Calm,-,N/A,,Clear,0,2012-10-31 11:53:00
7:13 AM,24.8,17.6,74,30.04,10.0,Calm,Calm,-,N/A,,Clear,0,2012-10-31 12:13:00
7:33 AM,24.8,17.6,74,30.05,10.0,West,3.5,-,N/A,,Clear,280,2012-10-31 12:33:00
7:53 AM,23.0,17.6,80,30.05,10.0,Calm,Calm,-,N/A,,Clear,0,2012-10-31 12:53:00
8:12 AM,24.8,17.6,74,30.05,10.0,WNW,3.5,-,N/A,,Clear,290,2012-10-31 13:12:00
8:33 AM,24.8,17.6,74,30.05,10.0,Calm,Calm,-,N/A,,Clear,0,2012-10-31 13:33:00
8:53 AM,28.4,21.2,74,30.06,10.0,WNW,3.5,-,N/A,,Clear,300,2012-10-31 13:53:00
9:12 AM,32.0,23.0,69,30.06,10.0,Calm,Calm,-,N/A,,Clear,0,2012-10-31 14:12:00
9:33 AM,33.8,23.0,65,30.06,10.0,NNW,5.8,-,N/A,,Clear,330,2012-10-31 14:33:00
9:53 AM,35.6,23.0,60,30.06,10.0,NNW,6.9,-,N/A,,Clear,330,2012-10-31 14:53:00
10:12 AM,37.4,23.0,56,30.05,10.0,NW,6.9,-,N/A,,Clear,320,2012-10-31 15:12:00
10:33 AM,39.2,21.2,49,30.05,10.0,NNW,8.1,-,N/A,,Clear,330,2012-10-31 15:33:00
10:53 AM,41.0,21.2,45,30.05,10.0,NW,9.2,-,N/A,,Clear,320,2012-10-31 15:53:00
11:18 AM,41.0,19.4,42,30.05,10.0,NW,8.1,-,N/A,,Clear,310,2012-10-31 16:18:00
11:33 AM,44.6,19.4,37,30.05,10.0,WNW,8.1,-,N/A,,Clear,300,2012-10-31 16:33:00
11:53 AM,44.6,19.4,37,30.05,10.0,NW,9.2,-,N/A,,Clear,320,2012-10-31 16:53:00
12:13 PM,44.6,17.6,34,30.04,10.0,NW,9.2,-,N/A,,Clear,310,2012-10-31 17:13:00
12:33 PM,44.6,17.6,34,30.04,10.0,NW,11.5,-,N/A,,Clear,310,2012-10-31 17:33:00
12:53 PM,46.4,15.8,29,30.03,10.0,NW,11.5,16.1,N/A,,Clear,320,2012-10-31 17:53:00
1:18 PM,46.4,12.2,25,30.02,10.0,NNW,11.5,-,N/A,,Clear,330,2012-10-31 18:18:00
1:33 PM,46.4,12.2,25,30.01,10.0,NNW,9.2,-,N/A,,Clear,330,2012-10-31 18:33:00
2:13 PM,51.8,14.0,22,30.00,10.0,NW,8.1,-,N/A,,Clear,320,2012-10-31 19:13:00
2:33 PM,51.8,14.0,22,29.99,10.0,NW,6.9,-,N/A,,Clear,320,2012-10-31 19:33:00
2:53 PM,51.8,15.8,24,29.98,10.0,NW,10.4,-,N/A,,Clear,320,2012-10-31 19:53:00
3:13 PM,51.8,15.8,24,29.98,10.0,NW,9.2,-,N/A,,Clear,310,2012-10-31 20:13:00
3:33 PM,53.6,17.6,24,29.98,10.0,NW,9.2,-,N/A,,Clear,310,2012-10-31 20:33:00
3:53 PM,53.6,19.4,26,29.98,10.0,NW,10.4,-,N/A,,Scattered Clouds,320,2012-10-31 20:53:00
4:13 PM,53.6,19.4,26,29.97,10.0,NW,9.2,-,N/A,,Scattered Clouds,320,2012-10-31 21:13:00
4:33 PM,53.6,19.4,26,29.98,10.0,NW,8.1,-,N/A,,Clear,320,2012-10-31 21:33:00
4:53 PM,53.6,21.2,28,29.98,10.0,NW,6.9,-,N/A,,Clear,310,2012-10-31 21:53:00
5:13 PM,51.8,19.4,28,29.97,10.0,NW,5.8,-,N/A,,Clear,310,2012-10-31 22:13:00
5:33 PM,51.8,21.2,30,29.97,10.0,West,5.8,-,N/A,,Mostly Cloudy,280,2012-10-31 22:33:00
5:53 PM,51.8,23.0,33,29.97,10.0,WNW,6.9,-,N/A,,Overcast,290,2012-10-31 22:53:00
6:13 PM,46.4,21.2,37,29.97,10.0,WNW,6.9,-,N/A,,Mostly Cloudy,290,2012-10-31 23:13:00
6:33 PM,44.6,21.2,39,29.97,10.0,WNW,6.9,-,N/A,,Scattered Clouds,290,2012-10-31 23:33:00
7:13 PM,41.0,23.0,49,29.97,10.0,Calm,Calm,-,N/A,,Clear,0,2012-11-01 00:13:00
7:33 PM,41.0,23.0,49,29.97,10.0,Calm,Calm,-,N/A,,Clear,0,2012-11-01 00:33:00
7:53 PM,41.0,23.0,49,29.97,10.0,Calm,Calm,-,N/A,,Clear,0,2012-11-01 00:53:00
8:13 PM,41.0,24.8,53,29.96,10.0,Calm,Calm,-,N/A,,Mostly Cloudy,0,2012-11-01 01:13:00
8:33 PM,39.2,26.6,61,29.97,10.0,Calm,Calm,-,N/A,,Overcast,0,2012-11-01 01:33:00
8:53 PM,41.0,26.6,57,29.96,10.0,Calm,Calm,-,N/A,,Overcast,0,2012-11-01 01:53:00
9:12 PM,41.0,30.2,65,29.96,10.0,Calm,Calm,-,N/A,,Overcast,0,2012-11-01 02:12:00
9:33 PM,41.0,28.4,61,29.96,10.0,Calm,Calm,-,N/A,,Overcast,0,2012-11-01 02:33:00
10:13 PM,41.0,30.2,65,29.96,10.0,Calm,Calm,-,N/A,,Overcast,0,2012-11-01 03:13:00
10:33 PM,41.0,28.4,61,29.96,10.0,Calm,Calm,-,N/A,,Overcast,0,2012-11-01 03:33:00
10:53 PM,41.0,28.4,61,29.96,10.0,Calm,Calm,-,N/A,,Overcast,0,2012-11-01 03:53:00
11:12 PM,41.0,28.4,61,29.96,10.0,Calm,Calm,-,N/A,,Overcast,0,2012-11-01 04:12:00
11:33 PM,41.0,28.4,61,29.95,10.0,Calm,Calm,-,N/A,,Overcast,0,2012-11-01 04:33:00
11:53 PM,41.0,28.4,61,29.96,10.0,Calm,Calm,-,N/A,,Overcast,0,2012-11-01 04:53:00